Time;durP1;ratioP1;P1;durP2;ratioP2;P2;SDS_P1;SDS_P2;PMS_P1;PMS_P2;Temp;Humidity;BMP_temperature;BMP_pressure;BME280_temperature;BME280_humidity;BME280_pressure;Samples;Min_cycle;Max_cycle;Signal;HPM_P1;HPM_P2
2022/12/18 00:00:40;;;;;;;17.60;12.50;;;;;;;16.14;36.56;102653.13;5015593;28;20033;-65
2022/12/18 00:03:06;;;;;;;17.17;12.33;;;;;;;16.12;36.52;102646.16;5015180;28;20062;-65
2022/12/18 00:05:31;;;;;;;17.33;12.33;;;;;;;16.07;36.51;102640.47;5015861;28;20045;-65
2022/12/18 00:07:56;;;;;;;16.70;12.27;;;;;;;16.12;36.69;102644.25;5014836;28;20041;-65
2022/12/18 00:10:21;;;;;;;17.20;12.30;;;;;;;16.05;36.46;102637.94;5015794;28;20033;-65
2022/12/18 00:12:47;;;;;;;17.80;12.80;;;;;;;16.06;36.39;102636.91;5015056;28;21383;-65
2022/12/18 00:15:12;;;;;;;19.10;13.43;;;;;;;15.99;36.44;102650.53;5014863;28;20088;-65
2022/12/18 00:17:37;;;;;;;16.80;12.10;;;;;;;16.01;36.51;102651.16;5015322;28;20488;-65
2022/12/18 00:20:03;;;;;;;16.53;12.00;;;;;;;15.99;36.41;102642.34;5015305;28;20730;-65
2022/12/18 00:22:28;;;;;;;17.73;12.23;;;;;;;15.96;36.60;102639.16;5014981;28;20040;-65
2022/12/18 00:24:54;;;;;;;17.13;12.47;;;;;;;15.93;36.53;102631.38;5014945;28;20052;-65
2022/12/18 00:27:19;;;;;;;18.33;12.97;;;;;;;15.96;36.49;102631.78;5015007;28;20150;-66
2022/12/18 00:29:44;;;;;;;17.50;12.73;;;;;;;15.94;36.58;102633.91;5014555;28;20511;-65
2022/12/18 00:32:10;;;;;;;17.43;11.90;;;;;;;15.91;36.32;102634.31;5014993;28;20048;-66
2022/12/18 00:34:35;;;;;;;18.73;11.70;;;;;;;15.88;36.60;102631.97;5015258;28;20106;-66
2022/12/18 00:37:00;;;;;;;16.93;12.20;;;;;;;15.92;36.45;102635.16;5015156;28;20430;-66
2022/12/18 00:39:26;;;;;;;18.73;12.00;;;;;;;15.86;36.51;102629.44;5015824;28;20080;-66
2022/12/18 00:44:55;;;;;;;16.97;11.97;;;;;;;15.84;36.33;102628.81;5011534;28;20049;-66
2022/12/18 00:47:20;;;;;;;16.83;11.90;;;;;;;15.81;36.30;102628.38;5011117;28;20069;-66
2022/12/18 00:49:45;;;;;;;17.27;11.63;;;;;;;15.77;36.25;102629.78;5012897;28;20055;-66
2022/12/18 00:52:11;;;;;;;17.57;12.00;;;;;;;15.78;36.40;102615.91;5015060;28;20754;-66
2022/12/18 00:54:36;;;;;;;17.20;12.40;;;;;;;15.79;36.42;102623.09;5015367;28;20159;-66
2022/12/18 00:57:02;;;;;;;16.53;11.53;;;;;;;15.75;36.46;102615.47;5014062;28;20396;-66
2022/12/18 00:59:27;;;;;;;16.67;12.23;;;;;;;15.74;36.35;102619.28;5017561;28;21433;-65
2022/12/18 01:01:53;;;;;;;16.63;11.30;;;;;;;15.75;36.39;102607.28;5019107;28;20041;-66
2022/12/18 01:04:18;;;;;;;17.77;11.47;;;;;;;15.74;36.17;102608.34;5019257;28;20041;-66
2022/12/18 01:06:43;;;;;;;16.70;11.73;;;;;;;15.71;36.29;102617.78;5018459;28;20041;-65
2022/12/18 01:09:09;;;;;;;16.47;11.53;;;;;;;15.65;36.04;102627.66;5018587;28;20037;-65
2022/12/18 01:11:34;;;;;;;16.60;11.10;;;;;;;15.70;36.10;102641.53;5018044;28;20048;-65
2022/12/18 01:13:59;;;;;;;17.90;12.17;;;;;;;15.64;36.39;102647.81;5017638;28;20041;-66
2022/12/18 01:16:25;;;;;;;16.93;11.53;;;;;;;15.63;36.29;102646.13;5017817;28;20164;-65
2022/12/18 01:18:54;;;;;;;17.60;12.43;;;;;;;15.63;36.39;102648.84;5018316;28;21459;-66
2022/12/18 01:21:20;;;;;;;16.03;11.63;;;;;;;15.66;36.33;102658.53;5018826;28;20080;-66
2022/12/18 01:23:46;;;;;;;16.57;11.63;;;;;;;15.58;36.27;102648.59;5018816;28;20425;-66
2022/12/18 01:26:14;;;;;;;16.67;11.80;;;;;;;15.55;36.10;102650.91;5018369;28;20045;-66
2022/12/18 01:28:40;;;;;;;16.80;11.37;;;;;;;15.55;36.20;102634.53;5019144;28;20160;-65
2022/12/18 01:31:20;;;;;;;17.90;12.20;;;;;;;15.61;36.50;102637.28;5018564;28;20098;-66
2022/12/18 01:33:50;;;;;;;16.30;11.40;;;;;;;15.56;36.37;102641.66;5033691;28;20404;-66
2022/12/18 01:36:24;;;;;;;17.50;12.17;;;;;;;15.58;36.15;102643.13;5017917;28;20104;-65
2022/12/18 01:38:50;;;;;;;16.53;11.90;;;;;;;15.52;36.19;102631.13;5018205;28;20042;-65
2022/12/18 01:41:18;;;;;;;16.73;11.53;;;;;;;15.50;36.19;102626.91;5017131;28;20089;-65
2022/12/18 01:43:53;;;;;;;19.50;12.80;;;;;;;15.54;36.37;102630.94;5017624;28;20044;-65
2022/12/18 01:46:21;;;;;;;16.57;11.40;;;;;;;15.48;35.99;102629.84;5017735;28;20036;-65
2022/12/18 01:48:49;;;;;;;16.27;11.77;;;;;;;15.43;36.17;102623.31;5017576;28;20041;-65
2022/12/18 01:51:15;;;;;;;17.00;11.83;;;;;;;15.49;36.10;102619.75;5018398;28;20029;-66
2022/12/18 01:53:43;;;;;;;17.40;11.80;;;;;;;15.47;36.09;102622.69;5017593;28;20411;-66
2022/12/18 01:56:15;;;;;;;16.30;11.43;;;;;;;15.40;36.05;102619.09;5017301;28;20029;-66
2022/12/18 01:58:49;;;;;;;16.93;12.10;;;;;;;15.43;35.95;102618.69;5018875;28;20036;-66
2022/12/18 02:01:14;;;;;;;16.83;12.17;;;;;;;15.42;36.02;102630.66;5018128;28;20069;-66
2022/12/18 02:03:42;;;;;;;16.63;11.53;;;;;;;15.42;36.18;102627.06;5017674;28;20706;-66
2022/12/18 02:06:14;;;;;;;17.23;11.50;;;;;;;15.39;36.13;102624.75;5018073;28;20040;-65
2022/12/18 02:09:01;;;;;;;17.63;12.07;;;;;;;15.39;36.21;102616.56;5017182;28;20038;-66
2022/12/18 02:11:45;;;;;;;15.87;11.73;;;;;;;15.46;36.35;102620.16;5016584;28;20026;-66
2022/12/18 02:14:16;;;;;;;16.33;11.37;;;;;;;15.33;35.90;102612.75;5017668;28;20052;-66
2022/12/18 02:16:50;;;;;;;15.50;11.30;;;;;;;15.32;36.19;102625.53;5016933;28;20022;-65
2022/12/18 02:19:39;;;;;;;15.38;10.98;;;;;;;15.41;36.22;102619.91;5017780;28;20056;-66
2022/12/18 02:22:23;;;;;;;15.37;11.07;;;;;;;15.40;36.13;102618.25;5016604;28;20528;-65
2022/12/18 02:25:08;;;;;;;16.77;11.60;;;;;;;15.32;35.96;102619.25;5016679;28;20574;-65
2022/12/18 02:27:36;;;;;;;17.47;11.37;;;;;;;15.32;35.86;102625.53;5016763;28;20055;-65
2022/12/18 02:30:05;;;;;;;16.23;11.87;;;;;;;15.26;35.84;102626.34;5017306;28;20030;-65
2022/12/18 02:32:36;;;;;;;17.23;11.13;;;;;;;15.28;35.90;102621.53;5016756;28;20108;-65
2022/12/18 02:35:05;;;;;;;15.27;11.03;;;;;;;15.27;35.79;102627.19;5016565;28;20030;-65
2022/12/18 02:37:33;;;;;;;16.03;11.37;;;;;;;15.21;35.81;102620.66;5016877;28;20025;-65
2022/12/18 02:39:59;;;;;;;15.90;11.27;;;;;;;15.23;35.88;102623.19;5016740;28;20417;-65
2022/12/18 02:42:25;;;;;;;16.13;11.67;;;;;;;15.23;35.87;102629.50;5016974;28;20029;-65
2022/12/18 02:44:51;;;;;;;14.90;10.13;;;;;;;15.17;36.01;102617.47;5016623;28;20033;-66
2022/12/18 02:47:21;;;;;;;16.13;10.97;;;;;;;15.22;35.81;102610.56;5016874;28;20056;-66
2022/12/18 02:50:11;;;;;;;16.73;11.73;;;;;;;15.27;35.90;102603.47;5016759;28;20052;-65
2022/12/18 02:52:53;;;;;;;15.60;10.67;;;;;;;15.26;36.18;102593.59;5016539;28;20030;-66
2022/12/18 02:55:36;;;;;;;15.00;10.70;;;;;;;15.20;36.13;102597.09;5017071;28;20069;-66
2022/12/18 02:58:16;;;;;;;15.50;10.70;;;;;;;15.21;35.76;102596.06;5016190;28;20039;-65
2022/12/18 03:00:53;;;;;;;15.20;10.73;;;;;;;15.18;35.87;102586.38;5016941;28;20029;-65
2022/12/18 03:03:24;;;;;;;14.80;10.40;;;;;;;15.13;35.86;102590.78;5015798;28;20034;-65
2022/12/18 03:05:56;;;;;;;15.57;10.50;;;;;;;15.14;35.79;102598.75;5016421;28;20508;-65
2022/12/18 03:08:32;;;;;;;14.80;10.93;;;;;;;15.12;35.84;102598.13;5015827;28;20481;-65
2022/12/18 03:11:09;;;;;;;14.77;10.40;;;;;;;15.14;35.99;102596.03;5016184;28;20044;-65
2022/12/18 03:13:45;;;;;;;15.07;10.60;;;;;;;15.10;35.92;102591.19;5015399;28;20033;-65
2022/12/18 03:16:16;;;;;;;14.83;10.67;;;;;;;15.10;35.79;102585.72;5015433;28;20076;-66
2022/12/18 03:18:48;;;;;;;16.07;10.50;;;;;;;15.10;35.58;102578.34;5016364;28;20047;-65
2022/12/18 03:21:15;;;;;;;14.30;10.53;;;;;;;15.03;35.75;102586.50;5016212;28;20476;-65
2022/12/18 03:23:47;;;;;;;14.77;10.83;;;;;;;15.01;35.95;102591.34;5016277;28;20033;-65
2022/12/18 03:26:16;;;;;;;14.30;10.40;;;;;;;14.97;35.67;102589.19;5016279;28;20185;-65
2022/12/18 03:28:55;;;;;;;14.63;10.23;;;;;;;15.03;35.89;102583.78;5016548;28;20041;-66
2022/12/18 03:31:23;;;;;;;14.60;10.23;;;;;;;14.98;35.82;102585.41;5016177;28;20052;-66
2022/12/18 03:33:58;;;;;;;14.27;10.23;;;;;;;15.01;36.00;102580.41;5015941;28;20385;-66
2022/12/18 03:36:24;;;;;;;14.57;10.23;;;;;;;15.00;35.72;102580.59;5016118;28;20088;-65
2022/12/18 03:38:50;;;;;;;14.40;10.43;;;;;;;14.97;35.51;102573.66;5015160;28;21720;-66
2022/12/18 03:41:22;;;;;;;14.20;10.10;;;;;;;14.94;35.82;102574.03;5015528;28;20071;-66
2022/12/18 03:44:10;;;;;;;15.67;10.07;;;;;;;14.94;35.86;102574.03;5015597;28;20503;-66
2022/12/18 03:46:47;;;;;;;13.70;10.13;;;;;;;14.89;35.95;102571.09;5016033;28;20417;-65
2022/12/18 03:49:28;;;;;;;14.90;10.23;;;;;;;14.97;35.93;102572.81;5016344;28;20037;-65
2022/12/18 03:52:08;;;;;;;14.40;9.50;;;;;;;15.00;35.86;102561.47;5015762;28;20489;-65
2022/12/18 03:54:35;;;;;;;15.00;10.30;;;;;;;14.83;35.58;102559.06;5015458;28;20430;-65
2022/12/18 03:57:07;;;;;;;13.90;10.00;;;;;;;14.85;35.77;102553.44;5015165;28;20393;-65
2022/12/18 03:59:33;;;;;;;14.37;9.97;;;;;;;14.91;35.68;102552.63;5016292;28;20037;-66
2022/12/18 04:02:01;;;;;;;14.37;10.30;;;;;;;14.85;35.73;102553.44;5015562;28;20397;-66
2022/12/18 04:04:29;;;;;;;13.50;9.77;;;;;;;14.83;35.75;102545.41;5015831;28;20670;-65
2022/12/18 04:06:55;;;;;;;15.30;10.10;;;;;;;14.87;35.70;102534.94;5015370;28;20029;-65
2022/12/18 04:09:21;;;;;;;14.17;9.73;;;;;;;14.84;35.51;102543.53;5015616;28;20041;-65
2022/12/18 04:11:47;;;;;;;13.87;9.90;;;;;;;14.76;35.72;102525.44;5015358;28;20040;-65
2022/12/18 04:14:13;;;;;;;14.17;9.80;;;;;;;14.80;35.56;102523.16;5015796;28;20040;-65
2022/12/18 04:16:38;;;;;;;12.57;9.73;;;;;;;14.79;35.73;102526.91;5015755;28;20025;-66
2022/12/18 04:19:04;;;;;;;14.17;9.63;;;;;;;14.77;35.70;102518.06;5015674;28;20119;-65
2022/12/18 04:21:30;;;;;;;13.63;9.70;;;;;;;14.75;35.61;102520.19;5015868;28;20037;-65
2022/12/18 04:23:55;;;;;;;14.33;9.70;;;;;;;14.76;35.86;102516.41;5014594;28;20197;-66
2022/12/18 04:26:20;;;;;;;14.00;9.80;;;;;;;14.73;35.52;102527.69;5015225;28;20064;-65
2022/12/18 04:28:46;;;;;;;13.40;9.10;;;;;;;14.75;35.64;102518.28;5014714;28;20044;-66
2022/12/18 04:31:11;;;;;;;13.20;9.73;;;;;;;14.73;35.72;102511.31;5015526;28;20041;-65
2022/12/18 04:33:37;;;;;;;13.33;9.40;;;;;;;14.75;35.74;102514.72;5014689;28;20021;-65
2022/12/18 04:36:03;;;;;;;12.40;8.97;;;;;;;14.72;35.65;102509.66;5012159;28;20859;-66
2022/12/18 04:38:28;;;;;;;12.17;8.50;;;;;;;14.69;35.82;102519.91;5014806;28;20037;-65
2022/12/18 04:40:53;;;;;;;12.33;8.90;;;;;;;14.66;35.57;102524.91;5014861;28;20081;-65
2022/12/18 04:43:19;;;;;;;11.90;8.40;;;;;;;14.72;35.49;102528.75;5014101;28;20037;-66
2022/12/18 04:45:44;;;;;;;13.40;9.50;;;;;;;14.64;35.75;102533.31;5013593;28;20041;-65
2022/12/18 04:48:10;;;;;;;12.70;9.03;;;;;;;14.63;35.73;102542.56;5014372;28;20412;-66
2022/12/18 04:50:35;;;;;;;11.87;8.93;;;;;;;14.61;35.49;102539.13;5014917;28;20481;-66
2022/12/18 04:53:00;;;;;;;12.70;9.10;;;;;;;14.66;35.65;102544.88;5014834;28;20072;-65
2022/12/18 04:55:26;;;;;;;12.07;9.30;;;;;;;14.65;35.73;102551.38;5014696;28;20037;-65
2022/12/18 04:57:52;;;;;;;13.53;9.00;;;;;;;14.69;35.54;102549.09;5013149;28;20579;-65
2022/12/18 05:00:18;;;;;;;12.60;8.77;;;;;;;14.62;35.49;102554.47;5017824;28;21730;-66
2022/12/18 05:02:43;;;;;;;12.10;8.60;;;;;;;14.59;35.55;102551.28;5014889;28;20037;-66
2022/12/18 05:05:08;;;;;;;11.33;8.87;;;;;;;14.56;35.55;102563.44;5014872;28;20043;-66
2022/12/18 05:07:34;;;;;;;11.67;8.93;;;;;;;14.59;35.71;102565.78;5014513;28;20048;-65
2022/12/18 05:09:59;;;;;;;11.77;8.53;;;;;;;14.61;35.56;102574.59;5014988;28;20037;-65
2022/12/18 05:12:25;;;;;;;11.73;8.70;;;;;;;14.67;35.38;102575.72;5014262;28;20033;-65
2022/12/18 05:14:50;;;;;;;11.03;8.50;;;;;;;14.68;35.54;102575.53;5014376;28;20709;-65
2022/12/18 05:17:15;;;;;;;10.43;7.93;;;;;;;14.71;35.45;102568.81;5014513;28;20095;-65
2022/12/18 05:19:41;;;;;;;11.10;8.17;;;;;;;14.77;35.84;102569.91;5014354;28;20128;-65
2022/12/18 05:22:07;;;;;;;11.10;8.20;;;;;;;14.82;35.97;102571.03;5013655;28;20504;-66
2022/12/18 05:24:33;;;;;;;10.40;8.20;;;;;;;14.88;35.96;102566.66;5014727;28;20025;-65
2022/12/18 05:26:58;;;;;;;9.93;7.87;;;;;;;14.93;35.83;102568.78;5013624;28;20064;-65
2022/12/18 05:29:23;;;;;;;9.93;7.70;;;;;;;15.02;36.47;102567.59;5014909;28;20053;-65
2022/12/18 05:31:49;;;;;;;10.67;7.77;;;;;;;15.09;36.20;102562.19;5014511;28;20524;-66
2022/12/18 05:34:14;;;;;;;9.20;7.10;;;;;;;15.18;36.13;102563.72;5014693;28;20497;-66
2022/12/18 05:36:39;;;;;;;10.10;7.50;;;;;;;15.21;35.93;102554.28;5014820;28;20116;-65
2022/12/18 05:39:06;;;;;;;9.60;7.20;;;;;;;15.27;35.43;102559.78;5011134;28;20048;-66
2022/12/18 05:41:31;;;;;;;10.43;7.40;;;;;;;15.32;35.17;102557.28;5013465;28;20065;-66
2022/12/18 05:43:56;;;;;;;9.10;7.20;;;;;;;15.38;35.03;102560.25;5014398;28;20041;-66
2022/12/18 05:46:22;;;;;;;10.00;7.40;;;;;;;15.40;35.07;102550.81;5016807;28;20136;-66
2022/12/18 05:48:48;;;;;;;9.23;7.17;;;;;;;15.42;34.96;102539.69;5017945;28;20125;-66
2022/12/18 05:51:16;;;;;;;9.57;7.17;;;;;;;15.44;34.99;102546.63;5019153;28;20478;-66
2022/12/18 05:53:42;;;;;;;10.23;7.23;;;;;;;15.47;34.95;102540.75;5017708;28;20079;-66
2022/12/18 05:56:12;;;;;;;8.80;7.03;;;;;;;15.47;34.86;102540.75;5018084;28;20029;-65
2022/12/18 05:58:37;;;;;;;8.83;6.90;;;;;;;15.48;34.79;102538.88;5017734;28;21334;-65
2022/12/18 06:01:08;;;;;;;9.83;7.23;;;;;;;15.47;35.09;102531.72;5017956;28;20040;-65
2022/12/18 06:03:34;;;;;;;9.40;6.77;;;;;;;15.46;34.88;102530.03;5018275;28;20021;-65
2022/12/18 06:05:59;;;;;;;8.73;6.90;;;;;;;15.44;35.42;102516.56;5017487;28;20041;-65
2022/12/18 06:08:24;;;;;;;8.43;6.77;;;;;;;15.46;35.18;102521.84;5017367;28;20052;-65
2022/12/18 06:10:54;;;;;;;9.47;7.10;;;;;;;15.47;35.06;102526.25;5017223;28;20037;-66
2022/12/18 06:13:20;;;;;;;9.80;7.00;;;;;;;15.47;35.15;102518.91;5017482;28;20037;-66
2022/12/18 06:15:45;;;;;;;9.63;7.00;;;;;;;15.48;35.08;102515.13;5017624;28;20029;-65
2022/12/18 06:18:11;;;;;;;8.70;6.60;;;;;;;15.46;35.11;102513.63;5017565;28;20381;-65
2022/12/18 06:20:39;;;;;;;8.47;6.47;;;;;;;15.48;34.91;102514.28;5017599;28;20481;-66
2022/12/18 06:23:04;;;;;;;9.10;6.87;;;;;;;15.45;35.21;102509.22;5017438;28;20043;-66
2022/12/18 06:25:30;;;;;;;8.73;6.87;;;;;;;15.45;35.32;102525.59;5016868;28;20033;-65
2022/12/18 06:27:55;;;;;;;8.90;7.07;;;;;;;15.42;34.94;102521.41;5015259;28;20128;-66
2022/12/18 06:30:20;;;;;;;9.63;6.90;;;;;;;15.42;35.06;102528.75;5017674;28;20117;-66
2022/12/18 06:32:48;;;;;;;9.57;7.00;;;;;;;15.38;35.35;102535.66;5017038;28;20091;-65
2022/12/18 06:35:13;;;;;;;9.53;6.93;;;;;;;15.35;35.24;102526.84;5016631;28;20413;-66
2022/12/18 06:37:39;;;;;;;8.20;6.57;;;;;;;15.36;35.28;102525.78;5017075;28;20037;-66
2022/12/18 06:40:05;;;;;;;9.03;6.63;;;;;;;15.40;35.31;102523.50;5016784;28;20065;-65
2022/12/18 06:42:31;;;;;;;10.00;6.90;;;;;;;15.38;35.69;102517.41;5016589;28;20512;-66
2022/12/18 06:44:57;;;;;;;8.40;6.67;;;;;;;15.39;35.23;102520.97;5016916;28;20033;-66
2022/12/18 06:47:22;;;;;;;8.00;6.20;;;;;;;15.40;35.25;102512.56;5017544;28;20037;-66
2022/12/18 06:49:48;;;;;;;8.63;6.60;;;;;;;15.42;35.59;102499.56;5017355;28;20449;-65
2022/12/18 06:52:14;;;;;;;7.77;6.30;;;;;;;15.42;35.05;102510.50;5014107;28;20056;-65
2022/12/18 06:54:39;;;;;;;8.83;6.47;;;;;;;15.40;35.30;102507.09;5016283;28;20029;-66
2022/12/18 06:57:04;;;;;;;9.90;6.70;;;;;;;15.39;35.48;102505.41;5016871;28;20144;-65
2022/12/18 06:59:30;;;;;;;10.00;6.87;;;;;;;15.38;35.34;102508.34;5016979;28;20477;-65
2022/12/18 07:01:55;;;;;;;9.83;7.00;;;;;;;15.34;35.31;102508.78;5016760;28;20616;-66
2022/12/18 07:04:20;;;;;;;8.57;6.93;;;;;;;15.31;34.88;102502.84;5016709;28;20033;-65
2022/12/18 07:06:46;;;;;;;8.77;6.87;;;;;;;15.31;35.08;102502.84;5016602;28;20030;-65
2022/12/18 07:09:11;;;;;;;7.60;6.13;;;;;;;15.33;35.46;102492.59;5016099;28;20438;-65
2022/12/18 07:11:36;;;;;;;8.33;6.70;;;;;;;15.39;35.34;102496.38;5016455;28;20437;-66
2022/12/18 07:14:02;;;;;;;8.00;6.50;;;;;;;15.41;35.19;102497.00;5015984;28;20037;-66
2022/12/18 07:16:29;;;;;;;7.57;6.33;;;;;;;15.41;35.19;102486.09;5016988;28;20117;-66
2022/12/18 07:18:56;;;;;;;8.90;6.90;;;;;;;15.42;35.07;102483.19;5015611;28;20096;-66
2022/12/18 07:21:22;;;;;;;7.90;6.20;;;;;;;15.45;34.67;102479.16;5016719;28;20065;-65
2022/12/18 07:23:48;;;;;;;8.17;6.50;;;;;;;15.47;34.60;102475.19;5015433;28;20536;-66
2022/12/18 07:26:16;;;;;;;8.20;5.87;;;;;;;15.48;34.61;102468.69;5016250;28;20041;-66
2022/12/18 07:28:41;;;;;;;7.23;6.00;;;;;;;15.50;34.42;102474.81;5016560;28;20041;-66
2022/12/18 07:31:11;;;;;;;8.27;6.40;;;;;;;15.49;34.50;102469.50;5016202;28;20040;-65
2022/12/18 07:33:36;;;;;;;8.40;6.60;;;;;;;15.51;34.50;102461.97;5016334;28;21091;-65
2022/12/18 07:36:07;;;;;;;8.27;6.10;;;;;;;15.53;34.44;102454.44;5015324;28;20046;-65
2022/12/18 07:38:33;;;;;;;8.57;6.40;;;;;;;15.53;34.42;102457.16;5015162;28;20065;-66
2022/12/18 07:41:11;;;;;;;9.13;6.37;;;;;;;15.53;34.55;102447.06;5015712;28;20061;-66
2022/12/18 07:43:37;;;;;;;8.10;6.30;;;;;;;15.55;34.36;102446.03;5015738;28;20303;-65
2022/12/18 07:46:03;;;;;;;9.17;6.40;;;;;;;15.56;34.21;102445.81;5016091;28;20045;-65
2022/12/18 07:48:29;;;;;;;7.77;5.90;;;;;;;15.56;34.29;102444.94;5015209;28;20091;-65
2022/12/18 07:51:05;;;;;;;8.23;6.30;;;;;;;15.55;34.39;102438.66;5015355;28;20041;-65
2022/12/18 07:53:31;;;;;;;8.10;6.37;;;;;;;15.57;34.14;102435.72;5015371;28;20197;-65
2022/12/18 07:55:58;;;;;;;8.73;6.23;;;;;;;15.57;34.42;102419.31;5015287;28;20052;-67
2022/12/18 07:58:24;;;;;;;8.10;6.53;;;;;;;15.45;34.63;102405.41;5015716;28;20448;-65
2022/12/18 08:00:49;;;;;;;8.47;6.40;;;;;;;15.42;34.88;102406.69;5016231;28;20033;-65
2022/12/18 08:03:15;;;;;;;7.87;6.20;;;;;;;15.39;35.01;102411.72;5015837;28;20037;-64
2022/12/18 08:05:40;;;;;;;10.37;7.17;;;;;;;15.33;35.22;102413.41;5016008;28;20157;-64
2022/12/18 08:08:05;;;;;;;8.27;6.70;;;;;;;15.31;35.18;102421.78;5015176;28;20041;-64
2022/12/18 08:10:31;;;;;;;8.40;6.50;;;;;;;15.26;35.49;102418.84;5015825;28;20033;-64
2022/12/18 08:12:56;;;;;;;10.10;6.77;;;;;;;15.27;35.44;102416.94;5016358;28;20041;-64
2022/12/18 08:15:22;;;;;;;10.03;6.70;;;;;;;15.25;35.22;102417.13;5016284;28;20979;-64
2022/12/18 08:17:47;;;;;;;8.03;6.10;;;;;;;15.24;35.40;102428.28;5016014;28;20132;-64
2022/12/18 08:20:14;;;;;;;9.53;6.47;;;;;;;15.19;35.54;102423.44;5016006;28;20481;-64
2022/12/18 08:22:40;;;;;;;8.63;6.67;;;;;;;15.19;35.60;102432.47;5015321;28;20045;-64
2022/12/18 08:25:06;;;;;;;7.90;6.83;;;;;;;15.19;35.42;102439.81;5015136;28;20040;-64
2022/12/18 08:27:33;;;;;;;7.93;6.33;;;;;;;15.19;35.69;102440.66;5015986;28;20132;-64
2022/12/18 08:29:58;;;;;;;8.03;6.33;;;;;;;15.22;35.86;102438.53;5016158;28;20692;-65
2022/12/18 08:32:25;;;;;;;9.03;6.40;;;;;;;15.30;35.49;102436.50;5016021;28;20218;-65
2022/12/18 08:34:50;;;;;;;8.63;6.43;;;;;;;15.38;35.32;102430.00;5014483;28;20045;-64
2022/12/18 08:37:16;;;;;;;9.93;6.70;;;;;;;15.43;35.34;102429.38;5018092;28;20040;-64
2022/12/18 08:39:41;;;;;;;8.87;6.20;;;;;;;15.48;35.10;102435.06;5017219;28;20188;-64
2022/12/18 08:44:50;;;;;;;10.07;6.63;;;;;;;15.57;34.92;102419.31;5015427;28;20076;-64
2022/12/18 08:47:16;;;;;;;8.13;6.30;;;;;;;15.59;35.01;102417.25;5015355;28;20120;-65
2022/12/18 08:49:41;;;;;;;7.57;6.13;;;;;;;15.61;34.90;102404.19;5015426;28;20036;-65
2022/12/18 08:52:06;;;;;;;8.80;6.37;;;;;;;15.62;34.92;102404.00;5015271;28;20442;-65
2022/12/18 08:54:32;;;;;;;8.53;6.50;;;;;;;15.64;34.63;102392.84;5014983;28;20496;-65
2022/12/18 08:56:57;;;;;;;7.77;6.00;;;;;;;15.64;34.76;102396.44;5015328;28;20053;-65
2022/12/18 08:59:23;;;;;;;8.00;6.10;;;;;;;15.64;34.90;102410.09;5014771;28;20124;-65
2022/12/18 09:01:49;;;;;;;9.23;6.60;;;;;;;15.64;34.75;102403.78;5015115;28;20112;-64
2022/12/18 09:04:17;;;;;;;8.00;6.47;;;;;;;15.65;34.61;102398.13;5014604;28;20030;-65
2022/12/18 09:06:43;;;;;;;8.13;5.93;;;;;;;15.65;34.69;102391.81;5014936;28;20037;-65
2022/12/18 09:09:09;;;;;;;7.83;6.13;;;;;;;15.64;34.68;102406.50;5014478;28;20564;-64
2022/12/18 09:11:34;;;;;;;8.17;5.97;;;;;;;15.65;34.84;102410.94;5014908;28;20314;-65
2022/12/18 09:14:01;;;;;;;7.73;6.13;;;;;;;15.66;34.69;102413.44;5014618;28;20041;-65
2022/12/18 09:16:28;;;;;;;8.53;6.27;;;;;;;15.65;34.93;102400.88;5014153;28;20312;-64
2022/12/18 09:18:59;;;;;;;7.70;6.27;;;;;;;15.65;34.75;102411.78;5014304;28;20029;-65
2022/12/18 09:21:26;;;;;;;8.90;6.40;;;;;;;15.64;34.98;102410.09;5016343;28;20091;-64
2022/12/18 09:23:53;;;;;;;10.00;6.27;;;;;;;15.63;35.27;102419.34;5017322;28;20034;-64
2022/12/18 09:26:20;;;;;;;13.50;6.63;;;;;;;15.63;35.54;102422.06;5017931;28;20590;-65
2022/12/18 09:28:45;;;;;;;9.37;6.40;;;;;;;15.67;35.66;102430.72;5018692;28;20021;-65
2022/12/18 09:31:14;;;;;;;11.73;6.50;;;;;;;15.75;35.71;102430.50;5019146;28;21758;-65
2022/12/18 09:33:39;;;;;;;14.17;6.40;;;;;;;15.75;36.13;102433.25;5018266;28;20033;-66
2022/12/18 09:36:07;;;;;;;11.67;6.30;;;;;;;15.70;35.82;102425.66;5017482;28;20025;-67
2022/12/18 09:38:34;;;;;;;11.07;7.10;;;;;;;15.79;36.20;102418.13;5018257;28;20057;-67
2022/12/18 09:41:05;;;;;;;10.20;7.07;;;;;;;15.86;36.13;102407.22;5017836;28;20057;-67
2022/12/18 09:43:40;;;;;;;9.93;6.40;;;;;;;15.86;36.17;102397.13;5017379;28;20029;-65
2022/12/18 09:46:16;;;;;;;10.17;7.00;;;;;;;15.91;36.07;102390.19;5017745;28;20486;-65
2022/12/18 09:48:49;;;;;;;11.83;6.47;;;;;;;15.96;36.10;102388.50;5017413;28;20053;-68
2022/12/18 09:51:22;;;;;;;11.43;6.90;;;;;;;16.01;36.17;102388.72;5017621;28;20567;-65
2022/12/18 09:53:55;;;;;;;11.30;7.50;;;;;;;16.06;36.21;102376.31;5018019;28;20029;-65
2022/12/18 09:56:22;;;;;;;10.63;7.07;;;;;;;16.11;35.99;102377.34;5018074;28;20603;-65
2022/12/18 09:58:59;;;;;;;11.93;7.30;;;;;;;16.14;36.26;102367.88;5017010;28;20025;-66
2022/12/18 10:01:26;;;;;;;10.37;6.90;;;;;;;16.19;35.84;102368.09;5018498;28;20029;-65
2022/12/18 10:03:53;;;;;;;11.67;7.50;;;;;;;16.26;35.83;102368.91;5017524;28;20029;-65
2022/12/18 10:06:18;;;;;;;10.23;7.37;;;;;;;16.33;35.78;102374.38;5017937;28;20477;-65
2022/12/18 10:09:22;;;;;;;11.90;7.30;;;;;;;16.37;35.93;102371.03;5017853;28;20037;-64
2022/12/18 10:12:03;;;;;;;10.70;7.27;;;;;;;16.40;35.64;102380.69;5001081;28;20800;-64
2022/12/18 10:14:46;;;;;;;9.97;7.17;;;;;;;16.46;35.16;102384.47;5017082;28;20035;-64
2022/12/18 10:17:26;;;;;;;11.23;7.47;;;;;;;16.51;35.08;102377.28;5017045;28;20029;-64
2022/12/18 10:20:00;;;;;;;11.27;7.50;;;;;;;16.58;34.78;102377.28;5017163;28;20853;-65
2022/12/18 10:22:44;;;;;;;10.93;7.13;;;;;;;16.74;34.92;102383.31;5017221;28;20087;-63
2022/12/18 10:25:38;;;;;;;13.27;7.50;;;;;;;16.78;35.38;102376.34;5016651;28;20040;-65
2022/12/18 10:28:12;;;;;;;9.13;6.47;;;;;;;16.86;34.80;102376.13;5017366;28;20116;-64
2022/12/18 10:30:39;;;;;;;9.63;7.10;;;;;;;16.90;34.67;102373.81;5016697;28;20116;-67
2022/12/18 10:33:05;;;;;;;9.10;6.40;;;;;;;16.99;34.41;102362.41;5016695;28;20051;-67
2022/12/18 10:35:31;;;;;;;7.87;6.63;;;;;;;17.06;34.42;102354.16;5017127;28;20037;-66
2022/12/18 10:38:07;;;;;;;9.23;6.57;;;;;;;17.07;34.51;102355.00;5017050;28;20034;-67
2022/12/18 10:40:48;;;;;;;9.37;6.53;;;;;;;17.12;34.27;102357.91;5016923;28;20054;-66
2022/12/18 10:43:15;;;;;;;8.10;6.43;;;;;;;17.12;34.32;102349.69;5017427;28;20052;-67
2022/12/18 10:45:42;;;;;;;8.73;6.80;;;;;;;17.12;34.30;102333.28;5017056;28;20064;-67
2022/12/18 10:48:23;;;;;;;9.47;6.70;;;;;;;17.17;34.62;102327.97;5016877;28;20044;-66
2022/12/18 10:50:54;;;;;;;10.97;7.03;;;;;;;17.17;34.30;102333.47;5015990;28;20029;-64
2022/12/18 10:53:25;;;;;;;9.33;7.10;;;;;;;17.21;34.23;102326.47;5017361;28;20124;-65
2022/12/18 10:55:54;;;;;;;10.13;7.20;;;;;;;17.22;34.20;102319.94;5016851;28;20037;-65
2022/12/18 10:58:28;;;;;;;10.90;6.97;;;;;;;17.23;34.35;102318.91;5016538;28;20098;-65
2022/12/18 11:01:06;;;;;;;9.38;6.80;;;;;;;17.25;34.58;102307.72;5015817;28;20083;-66
2022/12/18 11:03:35;;;;;;;10.50;6.87;;;;;;;17.27;34.29;102300.97;5016643;28;20120;-66
2022/12/18 11:06:06;;;;;;;9.50;6.93;;;;;;;17.24;34.45;102303.28;5016737;28;20033;-66
2022/12/18 11:08:31;;;;;;;10.37;6.80;;;;;;;17.22;34.22;102303.53;5015856;28;20041;-65
2022/12/18 11:10:57;;;;;;;10.93;6.90;;;;;;;17.21;34.38;102294.44;5016212;28;20099;-66
2022/12/18 11:13:25;;;;;;;9.67;6.70;;;;;;;17.16;34.62;102307.97;5016415;28;20041;-66
2022/12/18 11:15:51;;;;;;;8.83;6.60;;;;;;;17.19;34.47;102302.06;5016129;28;20033;-66
2022/12/18 11:18:27;;;;;;;8.70;6.63;;;;;;;17.19;34.92;102309.44;5016693;28;20389;-66
2022/12/18 11:21:07;;;;;;;9.60;6.27;;;;;;;17.16;35.07;102301.66;5016064;28;20045;-66
2022/12/18 11:23:34;;;;;;;8.87;6.47;;;;;;;17.12;34.87;102304.00;5015899;28;20033;-66
2022/12/18 11:26:03;;;;;;;8.40;6.37;;;;;;;17.10;34.72;102291.59;5016600;28;20469;-66
2022/12/18 11:28:29;;;;;;;9.00;6.53;;;;;;;17.10;34.80;102286.94;5016051;28;20029;-66